createdAt,value
2019-05-07T00:02:05.852Z,88.04
2019-05-07T00:04:35.338Z,87.56
2019-05-07T00:07:05.046Z,87.76
2019-05-07T00:09:34.823Z,87.66
2019-05-07T00:12:05.304Z,87.75
2019-05-07T00:14:35.325Z,87.98
2019-05-07T00:17:04.747Z,88.06
2019-05-07T00:19:34.208Z,87.99
2019-05-07T00:22:03.590Z,88.13
2019-05-07T00:24:33.285Z,88.53
2019-05-07T00:27:03.012Z,88.99
2019-05-07T00:29:32.764Z,89.31
2019-05-07T00:32:03.027Z,89.60
2019-05-07T00:34:34.161Z,89.74
2019-05-07T00:37:22.033Z,89.93
2019-05-07T00:40:09.637Z,89.54
2019-05-07T00:42:56.829Z,89.83
2019-05-07T00:45:27.771Z,90.13
2019-05-07T00:47:57.010Z,90.34
2019-05-07T00:50:28.052Z,90.55
2019-05-07T00:52:57.417Z,90.75
2019-05-07T00:55:26.819Z,90.69
2019-05-07T00:57:56.229Z,90.70
2019-05-07T01:00:25.588Z,90.82
2019-05-07T01:02:54.962Z,91.17
2019-05-07T01:05:24.309Z,91.17
2019-05-07T01:07:53.610Z,91.37
2019-05-07T01:10:22.902Z,91.40
2019-05-07T01:12:53.162Z,91.52
2019-05-07T01:15:31.012Z,91.59
2019-05-07T01:17:53.701Z,91.76
2019-05-07T01:20:22.962Z,91.74
2019-05-07T01:22:54.478Z,91.73
2019-05-07T01:25:23.350Z,91.74
2019-05-07T01:27:53.344Z,91.94
2019-05-07T01:30:23.235Z,91.97
2019-05-07T01:32:54.420Z,92.19
2019-05-07T01:35:27.984Z,91.96
2019-05-07T01:37:57.456Z,91.96
2019-05-07T01:40:26.825Z,90.75
2019-05-07T01:42:56.089Z,89.80
2019-05-07T01:45:25.480Z,89.80
2019-05-07T01:47:54.779Z,89.50
2019-05-07T01:50:24.091Z,89.03
2019-05-07T01:52:53.496Z,88.65
2019-05-07T01:55:22.810Z,88.54
2019-05-07T01:57:52.408Z,88.62
2019-05-07T02:00:22.512Z,88.49
2019-05-07T02:02:59.323Z,88.56
2019-05-07T02:05:36.070Z,88.33
2019-05-07T02:08:07.089Z,88.72
2019-05-07T02:10:46.661Z,89.20
2019-05-07T02:13:15.977Z,89.19
2019-05-07T02:15:57.235Z,89.13
2019-05-07T02:18:16.337Z,89.19
2019-05-07T02:20:45.613Z,89.05
2019-05-07T02:23:14.902Z,88.90
2019-05-07T02:25:44.257Z,89.13
2019-05-07T02:28:13.582Z,88.85
2019-05-07T02:30:44.365Z,88.82
2019-05-07T02:33:14.177Z,89.01
2019-05-07T02:35:44.121Z,89.43
2019-05-07T02:38:23.032Z,89.21
2019-05-07T02:41:02.707Z,88.90
2019-05-07T02:43:33.480Z,88.90
2019-05-07T02:46:21.555Z,88.92
2019-05-07T02:48:44.135Z,89.21
2019-05-07T02:51:17.982Z,89.43
2019-05-07T02:53:57.563Z,89.50
2019-05-07T02:56:26.970Z,89.66
2019-05-07T02:58:56.336Z,89.67
2019-05-07T03:01:25.832Z,89.74
2019-05-07T03:03:55.205Z,89.87
2019-05-07T03:06:24.766Z,89.80
2019-05-07T03:08:54.135Z,89.75
2019-05-07T03:11:23.637Z,89.83
2019-05-07T03:13:53.954Z,89.64
2019-05-07T03:16:38.713Z,89.62
2019-05-07T03:18:54.569Z,89.63
2019-05-07T03:21:23.943Z,89.49
2019-05-07T03:24:03.926Z,89.46
2019-05-07T03:26:34.982Z,89.68
2019-05-07T03:29:05.986Z,89.93
2019-05-07T03:31:46.859Z,90.07
2019-05-07T03:34:16.618Z,90.39
2019-05-07T03:36:49.030Z,90.39
2019-05-07T03:39:18.774Z,90.23
2019-05-07T03:41:48.275Z,90.38
2019-05-07T03:44:19.369Z,90.15
2019-05-07T03:47:01.147Z,90.01
2019-05-07T03:49:33.866Z,89.67
2019-05-07T03:52:04.228Z,89.68
2019-05-07T03:54:33.991Z,89.44
2019-05-07T03:57:10.799Z,89.29
2019-05-07T03:59:34.950Z,89.03
2019-05-07T04:02:05.491Z,89.32
2019-05-07T04:04:34.894Z,89.32
2019-05-07T04:07:04.462Z,89.30
2019-05-07T04:09:33.955Z,88.95
2019-05-07T04:12:04.177Z,88.95
2019-05-07T04:14:34.367Z,89.11
2019-05-07T04:17:14.525Z,89.41
2019-05-07T04:19:35.276Z,89.29
2019-05-07T04:22:06.800Z,88.79
2019-05-07T04:24:54.131Z,88.67
2019-05-07T04:27:27.733Z,88.92
2019-05-07T04:29:56.972Z,89.04
2019-05-07T04:32:27.919Z,88.67
2019-05-07T04:34:58.950Z,88.43
2019-05-07T04:37:28.315Z,88.43
2019-05-07T04:39:57.671Z,88.38
2019-05-07T04:42:27.170Z,88.71
2019-05-07T04:44:56.514Z,88.80
2019-05-07T04:47:38.621Z,88.93
2019-05-07T04:49:56.991Z,88.78
2019-05-07T04:52:34.033Z,89.03
2019-05-07T04:55:04.408Z,89.09
2019-05-07T04:57:33.918Z,88.54
2019-05-07T05:00:05.090Z,88.98
2019-05-07T05:02:43.482Z,89.00
2019-05-07T05:05:15.354Z,88.50
2019-05-07T05:07:44.785Z,88.66
2019-05-07T05:10:14.185Z,88.57
2019-05-07T05:12:44.076Z,88.48
2019-05-07T05:15:14.317Z,88.28
2019-05-07T05:17:50.510Z,88.32
2019-05-07T05:20:15.918Z,88.42
2019-05-07T05:22:50.173Z,88.46
2019-05-07T05:25:32.946Z,88.29
2019-05-07T05:28:02.345Z,88.50
2019-05-07T05:30:45.339Z,87.82
2019-05-07T05:33:14.752Z,87.35
2019-05-07T05:35:44.134Z,87.08
2019-05-07T05:38:13.436Z,86.97
2019-05-07T05:40:43.007Z,86.32
2019-05-07T05:43:17.261Z,86.82
2019-05-07T05:45:48.305Z,85.83
2019-05-07T05:48:17.598Z,85.81
2019-05-07T05:51:02.659Z,86.02
2019-05-07T05:53:43.394Z,86.30
2019-05-07T05:56:32.392Z,86.65
2019-05-07T05:59:12.448Z,86.40
2019-05-07T06:01:49.365Z,86.19
2019-05-07T06:04:35.405Z,85.51
2019-05-07T06:07:11.056Z,85.64
2019-05-07T06:09:39.037Z,85.86
2019-05-07T06:12:22.275Z,85.91
2019-05-07T06:14:53.895Z,85.76
2019-05-07T06:17:43.179Z,85.84
2019-05-07T06:20:14.519Z,85.43
2019-05-07T06:23:02.031Z,85.55
2019-05-07T06:25:33.423Z,85.23
2019-05-07T06:28:02.775Z,84.97
2019-05-07T06:30:33.798Z,85.05
2019-05-07T06:33:03.245Z,84.26
2019-05-07T06:35:32.652Z,84.27
2019-05-07T06:38:04.266Z,83.64
2019-05-07T06:40:44.066Z,83.67
2019-05-07T06:43:15.136Z,83.60
2019-05-07T06:45:46.163Z,83.80
2019-05-07T06:48:33.078Z,83.58
2019-05-07T06:50:59.574Z,83.31
2019-05-07T06:53:33.359Z,83.44
2019-05-07T06:56:03.308Z,83.48
2019-05-07T06:58:46.408Z,83.44
2019-05-07T07:01:23.243Z,83.41
2019-05-07T07:04:02.346Z,82.96
2019-05-07T07:06:39.114Z,83.13
2019-05-07T07:09:22.561Z,83.40
2019-05-07T07:11:53.767Z,83.08
2019-05-07T07:14:24.111Z,83.03
2019-05-07T07:16:53.538Z,82.86
2019-05-07T07:19:23.365Z,82.88
2019-05-07T07:21:53.040Z,81.78
2019-05-07T07:24:22.455Z,81.74
2019-05-07T07:26:52.832Z,81.61
2019-05-07T07:29:24.251Z,81.09
2019-05-07T07:31:57.875Z,80.32
2019-05-07T07:34:28.938Z,79.30
2019-05-07T07:37:09.750Z,79.21
2019-05-07T07:39:37.038Z,78.01
2019-05-07T07:42:08.046Z,77.50
2019-05-07T07:44:37.454Z,77.80
2019-05-07T07:47:07.023Z,76.81
2019-05-07T07:49:36.704Z,76.22
2019-05-07T07:52:06.175Z,75.58
2019-05-07T07:54:35.617Z,75.57
2019-05-07T07:57:06.568Z,75.07
2019-05-07T07:59:48.648Z,73.92
2019-05-07T08:02:25.069Z,71.19
2019-05-07T08:04:54.402Z,70.29
2019-05-07T08:07:23.834Z,70.72
2019-05-07T08:09:53.546Z,71.22
2019-05-07T08:12:22.993Z,70.42
2019-05-07T08:14:52.367Z,70.46
2019-05-07T08:17:23.305Z,70.00
2019-05-07T08:19:52.782Z,71.12
2019-05-07T08:22:22.727Z,71.20
2019-05-07T08:24:52.297Z,70.56
2019-05-07T08:27:22.339Z,71.35
2019-05-07T08:29:52.584Z,71.24
2019-05-07T08:32:32.802Z,70.15
2019-05-07T08:35:03.759Z,69.70
2019-05-07T08:37:33.179Z,69.95
2019-05-07T08:40:03.218Z,69.10
2019-05-07T08:42:32.813Z,69.89
2019-05-07T08:45:06.842Z,69.68
2019-05-07T08:47:37.974Z,70.00
2019-05-07T08:50:07.418Z,70.03
2019-05-07T08:52:39.145Z,70.08
2019-05-07T08:55:09.461Z,69.98
2019-05-07T08:57:38.926Z,68.28
2019-05-07T09:00:09.178Z,67.65
2019-05-07T09:02:38.595Z,67.27
2019-05-07T09:05:09.294Z,66.63
2019-05-07T09:07:38.861Z,66.50
2019-05-07T09:10:08.693Z,66.17
2019-05-07T09:12:38.072Z,65.84
2019-05-07T09:15:09.061Z,65.41
2019-05-07T09:17:38.477Z,64.90
2019-05-07T09:20:09.290Z,64.19
2019-05-07T09:22:38.829Z,63.78
2019-05-07T09:25:08.748Z,63.29
2019-05-07T09:27:42.543Z,63.66
2019-05-07T09:30:14.295Z,63.36
2019-05-07T09:32:45.384Z,63.45
2019-05-07T09:35:33.193Z,64.15
2019-05-07T09:38:03.173Z,63.51
2019-05-07T09:40:32.798Z,63.54
2019-05-07T09:43:02.615Z,63.04
2019-05-07T09:45:32.913Z,63.29
2019-05-07T09:48:02.986Z,63.52
2019-05-07T09:50:32.769Z,64.04
2019-05-07T09:53:02.479Z,64.32
2019-05-07T09:55:32.703Z,63.67
2019-05-07T09:58:02.263Z,64.57
2019-05-07T10:00:33.267Z,64.40
2019-05-07T10:03:03.187Z,64.70
2019-05-07T10:05:32.565Z,64.66
2019-05-07T10:08:02.075Z,64.94
2019-05-07T10:10:32.887Z,65.43
2019-05-07T10:13:07.176Z,64.21
2019-05-07T10:15:36.954Z,64.49
2019-05-07T10:18:12.353Z,64.62
2019-05-07T10:20:45.551Z,64.59
2019-05-07T10:23:22.965Z,64.48
2019-05-07T10:25:53.140Z,64.66
2019-05-07T10:28:23.103Z,64.07
2019-05-07T10:30:52.827Z,64.12
2019-05-07T10:33:22.966Z,63.46
2019-05-07T10:35:53.023Z,63.99
2019-05-07T10:38:22.721Z,64.19
2019-05-07T10:40:52.169Z,63.74
2019-05-07T10:43:22.240Z,63.30
2019-05-07T10:46:09.320Z,62.99
2019-05-07T10:48:52.273Z,62.01
2019-05-07T10:51:21.890Z,61.67
2019-05-07T10:53:51.773Z,62.49
2019-05-07T10:56:22.329Z,62.50
2019-05-07T10:58:52.290Z,62.50
2019-05-07T11:01:23.583Z,62.31
2019-05-07T11:03:52.958Z,61.85
2019-05-07T11:06:22.469Z,61.63
2019-05-07T11:08:52.015Z,60.95
2019-05-07T11:11:22.344Z,61.31
2019-05-07T11:13:55.875Z,60.25
2019-05-07T11:16:25.427Z,60.05
2019-05-07T11:18:54.831Z,59.97
2019-05-07T11:21:32.986Z,60.27
2019-05-07T11:24:03.251Z,58.76
2019-05-07T11:26:33.118Z,59.11
2019-05-07T11:29:02.918Z,59.03
2019-05-07T11:31:33.078Z,58.23
2019-05-07T11:34:03.080Z,59.52
2019-05-07T11:36:34.475Z,59.66
2019-05-07T11:39:05.697Z,59.06
2019-05-07T11:41:38.938Z,59.16
2019-05-07T11:44:12.281Z,59.12
2019-05-07T11:46:44.455Z,59.49
2019-05-07T11:49:16.219Z,59.84
2019-05-07T11:51:47.424Z,59.57
2019-05-07T11:54:16.855Z,59.75
2019-05-07T11:56:46.364Z,60.39
2019-05-07T11:59:16.041Z,59.81
2019-05-07T12:01:52.611Z,59.17
2019-05-07T12:04:21.540Z,59.05
2019-05-07T12:06:52.071Z,58.70
2019-05-07T12:09:21.837Z,58.20
2019-05-07T12:11:52.063Z,58.58
2019-05-07T12:14:31.287Z,58.19
2019-05-07T12:16:52.746Z,59.45
2019-05-07T12:19:22.705Z,59.15
2019-05-07T12:21:52.721Z,60.32
2019-05-07T12:24:22.430Z,60.43
2019-05-07T12:26:52.311Z,59.91
2019-05-07T12:29:22.153Z,58.90
2019-05-07T12:32:08.592Z,59.08
2019-05-07T12:34:41.974Z,59.21
2019-05-07T12:37:12.277Z,59.40
2019-05-07T12:39:42.393Z,58.91
2019-05-07T12:42:12.213Z,57.97
2019-05-07T12:44:42.574Z,55.88
2019-05-07T12:47:12.241Z,54.24
2019-05-07T12:49:42.872Z,54.69
2019-05-07T12:52:16.938Z,54.47
2019-05-07T12:54:47.966Z,55.67
2019-05-07T12:57:17.360Z,54.55
2019-05-07T12:59:49.543Z,54.79
2019-05-07T13:02:40.047Z,54.53
2019-05-07T13:05:06.439Z,53.34
2019-05-07T13:07:39.176Z,52.52
2019-05-07T13:10:09.295Z,52.50
2019-05-07T13:12:38.763Z,51.96
2019-05-07T13:15:21.954Z,51.11
2019-05-07T13:17:41.707Z,50.47
2019-05-07T13:20:12.192Z,49.79
2019-05-07T13:22:42.722Z,50.17
2019-05-07T13:25:12.773Z,49.65
2019-05-07T13:27:42.927Z,48.86
2019-05-07T13:30:12.972Z,50.43
2019-05-07T13:32:45.001Z,49.80
2019-05-07T13:35:14.897Z,49.00
2019-05-07T13:37:52.500Z,47.75
2019-05-07T13:40:23.558Z,47.86
2019-05-07T13:42:57.257Z,47.68
2019-05-07T13:45:31.753Z,47.43
2019-05-07T13:48:03.269Z,46.54
2019-05-07T13:50:32.710Z,46.31
2019-05-07T13:53:02.100Z,45.87
2019-05-07T13:55:32.356Z,46.04
2019-05-07T13:58:02.004Z,45.88
2019-05-07T14:00:33.203Z,46.63
2019-05-07T14:03:03.394Z,46.44
2019-05-07T14:05:33.090Z,46.94
2019-05-07T14:08:04.574Z,46.79
2019-05-07T14:10:35.268Z,47.07
2019-05-07T14:13:12.604Z,47.12
2019-05-07T14:15:35.826Z,47.67
2019-05-07T14:18:05.890Z,47.50
2019-05-07T14:20:35.273Z,47.53
2019-05-07T14:23:04.824Z,48.33
2019-05-07T14:25:35.444Z,48.40
2019-05-07T14:28:04.904Z,48.17
2019-05-07T14:30:34.450Z,48.69
2019-05-07T14:33:08.266Z,48.55
2019-05-07T14:35:39.385Z,48.88
2019-05-07T14:38:13.875Z,50.24
2019-05-07T14:40:43.663Z,48.53
2019-05-07T14:43:32.792Z,48.59
2019-05-07T14:46:02.721Z,48.71
2019-05-07T14:48:35.934Z,48.94
2019-05-07T14:51:04.464Z,49.56
2019-05-07T14:53:34.084Z,49.46
2019-05-07T14:56:03.949Z,48.92
2019-05-07T14:58:33.476Z,47.89
2019-05-07T15:01:02.848Z,48.14
2019-05-07T15:03:32.309Z,47.35
2019-05-07T15:06:02.282Z,47.45
2019-05-07T15:08:32.419Z,47.66
2019-05-07T15:11:02.742Z,47.98
2019-05-07T15:13:33.254Z,47.97
2019-05-07T15:16:03.204Z,48.06
2019-05-07T15:18:48.479Z,47.73
2019-05-07T15:21:18.044Z,47.49
2019-05-07T15:23:48.653Z,47.49
2019-05-07T15:26:18.234Z,47.68
2019-05-07T15:28:52.235Z,47.00
2019-05-07T15:31:35.495Z,46.76
2019-05-07T15:34:04.933Z,46.50
2019-05-07T15:36:34.282Z,46.97
2019-05-07T15:39:05.176Z,46.00
2019-05-07T15:41:34.563Z,45.89
2019-05-07T15:44:03.865Z,45.20
2019-05-07T15:46:33.307Z,45.33
2019-05-07T15:49:02.730Z,45.68
2019-05-07T15:51:32.776Z,46.07
2019-05-07T15:54:03.532Z,45.67
2019-05-07T15:56:33.119Z,44.97
2019-05-07T15:59:02.428Z,45.09
2019-05-07T16:01:31.833Z,45.23
2019-05-07T16:04:02.790Z,45.76
2019-05-07T16:06:32.533Z,46.31
2019-05-07T16:09:04.430Z,46.91
2019-05-07T16:11:33.129Z,46.81
2019-05-07T16:14:07.218Z,46.71
2019-05-07T16:16:38.250Z,47.44
2019-05-07T16:19:09.290Z,48.38
2019-05-07T16:21:38.667Z,48.33
2019-05-07T16:24:08.226Z,48.73
2019-05-07T16:26:37.711Z,48.67
2019-05-07T16:29:07.176Z,48.79
2019-05-07T16:31:36.721Z,47.87
2019-05-07T16:34:06.163Z,47.60
2019-05-07T16:36:35.541Z,48.26
2019-05-07T16:39:06.658Z,48.08
2019-05-07T16:41:36.021Z,47.47
2019-05-07T16:44:06.002Z,48.25
2019-05-07T16:46:35.507Z,49.53
2019-05-07T16:49:04.946Z,50.10
2019-05-07T16:51:35.998Z,50.76
2019-05-07T16:54:05.642Z,51.08
2019-05-07T16:56:36.642Z,51.09
2019-05-07T16:59:07.941Z,51.00
2019-05-07T17:01:37.821Z,51.29
2019-05-07T17:04:07.784Z,51.72
2019-05-07T17:06:37.221Z,52.00
2019-05-07T17:09:14.238Z,52.52
2019-05-07T17:11:43.950Z,52.73
2019-05-07T17:14:13.419Z,53.26
2019-05-07T17:16:42.851Z,53.68
2019-05-07T17:19:13.861Z,53.95
2019-05-07T17:21:43.362Z,53.98
2019-05-07T17:24:12.865Z,54.33
2019-05-07T17:26:42.453Z,54.61
2019-05-07T17:29:12.191Z,55.12
2019-05-07T17:31:42.446Z,55.12
2019-05-07T17:34:12.093Z,55.33
2019-05-07T17:36:42.180Z,55.24
2019-05-07T17:39:12.285Z,55.68
2019-05-07T17:41:42.920Z,56.30
2019-05-07T17:44:12.751Z,56.70
2019-05-07T17:46:42.912Z,56.96
2019-05-07T17:49:13.247Z,57.37
2019-05-07T17:51:46.069Z,57.83
2019-05-07T17:54:15.631Z,57.83
2019-05-07T17:56:45.156Z,58.28
2019-05-07T17:59:14.528Z,58.26
2019-05-07T18:01:45.633Z,58.29
2019-05-07T18:04:15.368Z,58.92
2019-05-07T18:06:45.142Z,59.42
2019-05-07T18:09:14.519Z,59.61
2019-05-07T18:11:44.131Z,60.13
2019-05-07T18:14:13.556Z,60.29
2019-05-07T18:16:53.640Z,60.78
2019-05-07T18:19:23.286Z,60.83
2019-05-07T18:21:52.867Z,60.85
2019-05-07T18:24:22.605Z,61.23
2019-05-07T18:26:52.589Z,61.30
2019-05-07T18:29:22.605Z,61.52
2019-05-07T18:32:00.123Z,61.51
2019-05-07T18:34:31.948Z,61.92
2019-05-07T18:37:02.143Z,62.25
2019-05-07T18:39:32.568Z,62.74
2019-05-07T18:42:02.761Z,62.97
2019-05-07T18:44:32.428Z,62.94
2019-05-07T18:47:02.480Z,62.94
2019-05-07T18:49:32.395Z,63.25
2019-05-07T18:52:02.850Z,63.54
2019-05-07T18:54:32.992Z,63.75
2019-05-07T18:57:03.100Z,65.04
2019-05-07T18:59:34.325Z,64.93
2019-05-07T19:02:03.904Z,65.77
2019-05-07T19:04:33.307Z,66.16
2019-05-07T19:07:02.761Z,66.67
2019-05-07T19:09:32.269Z,66.77
2019-05-07T19:12:03.250Z,67.02
2019-05-07T19:14:33.405Z,67.19
2019-05-07T19:17:03.249Z,67.23
2019-05-07T19:19:32.908Z,67.28
2019-05-07T19:22:03.215Z,67.71
2019-05-07T19:24:44.623Z,67.36
2019-05-07T19:27:04.065Z,67.52
2019-05-07T19:29:33.582Z,67.46
2019-05-07T19:32:03.478Z,67.63
2019-05-07T19:34:32.881Z,67.48
2019-05-07T19:37:03.687Z,67.61
2019-05-07T19:39:33.139Z,67.58
2019-05-07T19:42:02.807Z,67.54
2019-05-07T19:44:32.217Z,67.58
2019-05-07T19:47:02.126Z,67.65
2019-05-07T19:49:32.524Z,67.91
2019-05-07T19:52:02.404Z,67.87
2019-05-07T19:54:32.387Z,67.64
2019-05-07T19:57:02.794Z,67.82
2019-05-07T19:59:32.768Z,67.48
2019-05-07T20:02:03.944Z,67.21
2019-05-07T20:04:33.396Z,67.35
2019-05-07T20:07:02.995Z,67.16
2019-05-07T20:09:34.044Z,66.95
2019-05-07T20:12:07.914Z,67.01
2019-05-07T20:14:36.074Z,67.44
2019-05-07T20:17:05.834Z,67.08
2019-05-07T20:19:35.636Z,67.11
2019-05-07T20:22:06.671Z,67.09
2019-05-07T20:24:36.184Z,67.25
2019-05-07T20:27:05.639Z,67.17
2019-05-07T20:29:37.198Z,66.99
2019-05-07T20:32:06.892Z,67.26
2019-05-07T20:34:37.198Z,67.01
2019-05-07T20:37:07.363Z,67.02
2019-05-07T20:39:37.936Z,66.78
2019-05-07T20:42:07.588Z,66.69
2019-05-07T20:44:37.051Z,66.86
2019-05-07T20:47:07.099Z,66.78
2019-05-07T20:49:36.784Z,66.81
2019-05-07T20:52:07.072Z,66.83
2019-05-07T20:54:41.993Z,66.87
2019-05-07T20:57:13.740Z,66.59
2019-05-07T20:59:43.325Z,66.46
2019-05-07T21:02:12.618Z,66.45
2019-05-07T21:04:42.547Z,66.50
2019-05-07T21:07:12.439Z,66.42
2019-05-07T21:09:42.377Z,66.63
2019-05-07T21:12:12.823Z,66.61
2019-05-07T21:14:42.569Z,66.66
2019-05-07T21:17:12.178Z,66.53
2019-05-07T21:19:42.828Z,66.42
2019-05-07T21:22:13.142Z,66.57
2019-05-07T21:24:42.908Z,66.82
2019-05-07T21:27:12.817Z,66.59
2019-05-07T21:29:42.502Z,66.59
2019-05-07T21:32:12.555Z,66.53
2019-05-07T21:34:42.357Z,66.94
2019-05-07T21:37:12.691Z,67.15
2019-05-07T21:39:42.591Z,67.02
2019-05-07T21:42:14.159Z,66.41
2019-05-07T21:44:43.171Z,66.07
2019-05-07T21:47:12.854Z,66.11
2019-05-07T21:49:43.121Z,65.99
2019-05-07T21:52:13.288Z,65.89
2019-05-07T21:54:53.395Z,65.71
2019-05-07T21:57:27.360Z,65.46
2019-05-07T22:00:13.619Z,65.50
2019-05-07T22:02:43.063Z,65.79
2019-05-07T22:05:12.719Z,65.61
2019-05-07T22:07:42.281Z,65.59
2019-05-07T22:10:12.760Z,65.83
2019-05-07T22:12:42.617Z,65.89
2019-05-07T22:15:13.068Z,65.85
2019-05-07T22:17:44.436Z,66.04
2019-05-07T22:20:13.811Z,66.14
2019-05-07T22:22:43.636Z,66.13
2019-05-07T22:25:13.213Z,66.09
2019-05-07T22:27:42.688Z,66.16
2019-05-07T22:30:14.238Z,66.35
2019-05-07T22:32:45.395Z,66.58
2019-05-07T22:35:19.007Z,66.75
2019-05-07T22:37:48.498Z,67.09
2019-05-07T22:40:18.230Z,67.15
2019-05-07T22:42:47.739Z,67.72
2019-05-07T22:45:17.237Z,67.75
2019-05-07T22:47:46.629Z,68.34
2019-05-07T22:50:16.161Z,68.62
2019-05-07T22:52:46.100Z,68.92
2019-05-07T22:55:15.491Z,69.23
2019-05-07T22:57:52.587Z,69.28
2019-05-07T23:00:23.810Z,69.74
2019-05-07T23:02:53.914Z,70.12
2019-05-07T23:05:23.621Z,70.06
2019-05-07T23:07:53.009Z,70.28
2019-05-07T23:10:22.616Z,70.36
2019-05-07T23:12:52.230Z,70.56
2019-05-07T23:15:22.593Z,70.68
2019-05-07T23:17:52.357Z,70.68
2019-05-07T23:20:24.134Z,70.83
2019-05-07T23:22:52.931Z,70.93
2019-05-07T23:25:24.463Z,70.87
2019-05-07T23:27:53.452Z,71.19
2019-05-07T23:30:22.854Z,71.55
2019-05-07T23:32:52.851Z,71.93
2019-05-07T23:35:22.369Z,72.14
2019-05-07T23:37:52.956Z,72.71
2019-05-07T23:40:27.089Z,73.12
2019-05-07T23:42:58.077Z,73.29
2019-05-07T23:45:27.450Z,73.40
2019-05-07T23:47:56.841Z,73.38
2019-05-07T23:50:26.309Z,73.71
2019-05-07T23:52:55.608Z,73.79
2019-05-07T23:55:24.986Z,73.84
2019-05-07T23:57:54.286Z,74.17
